sensor_id;sensor_type;location;lat;lon;timestamp;pressure;altitude;pressure_sealevel;temperature;humidity
77626;BME280;66794;43.764;10.436;2023-03-14T00:01:23;101380.34;;;14.12;96.44
77626;BME280;66794;43.764;10.436;2023-03-14T00:03:51;101381.47;;;14.18;95.68
77626;BME280;66794;43.764;10.436;2023-03-14T00:06:16;101388.63;;;14.19;96.27
77626;BME280;66794;43.764;10.436;2023-03-14T00:08:43;101389.09;;;14.23;96.28
77626;BME280;66794;43.764;10.436;2023-03-14T00:11:09;101383.44;;;14.24;96.36
77626;BME280;66794;43.764;10.436;2023-03-14T00:13:35;101376.72;;;14.20;95.83
77626;BME280;66794;43.764;10.436;2023-03-14T00:16:09;101367.19;;;14.16;96.39
77626;BME280;66794;43.764;10.436;2023-03-14T00:18:35;101345.97;;;14.11;95.67
77626;BME280;66794;43.764;10.436;2023-03-14T00:21:00;101351.06;;;14.14;95.95
77626;BME280;66794;43.764;10.436;2023-03-14T00:23:27;101337.75;;;13.97;96.42
77626;BME280;66794;43.764;10.436;2023-03-14T00:25:53;101325.25;;;13.87;96.75
77626;BME280;66794;43.764;10.436;2023-03-14T00:28:18;101321.41;;;13.82;96.53
77626;BME280;66794;43.764;10.436;2023-03-14T00:30:43;101308.22;;;13.71;97.51
77626;BME280;66794;43.764;10.436;2023-03-14T00:33:09;101303.69;;;13.63;97.54
77626;BME280;66794;43.764;10.436;2023-03-14T00:35:34;101292.94;;;13.47;98.26
77626;BME280;66794;43.764;10.436;2023-03-14T00:37:59;101286.75;;;13.53;97.61
77626;BME280;66794;43.764;10.436;2023-03-14T00:40:25;101282.59;;;13.42;98.37
77626;BME280;66794;43.764;10.436;2023-03-14T00:42:50;101275.53;;;13.33;98.39
77626;BME280;66794;43.764;10.436;2023-03-14T00:45:15;101265.31;;;13.35;97.88
77626;BME280;66794;43.764;10.436;2023-03-14T00:47:41;101254.22;;;13.36;97.80
77626;BME280;66794;43.764;10.436;2023-03-14T00:50:11;101246.47;;;13.33;97.13
77626;BME280;66794;43.764;10.436;2023-03-14T00:52:36;101250.88;;;13.34;96.77
77626;BME280;66794;43.764;10.436;2023-03-14T00:55:01;101254.13;;;13.30;97.00
77626;BME280;66794;43.764;10.436;2023-03-14T00:57:27;101245.97;;;13.30;97.30
77626;BME280;66794;43.764;10.436;2023-03-14T00:59:52;101237.88;;;13.22;97.51
77626;BME280;66794;43.764;10.436;2023-03-14T01:02:17;101237.25;;;13.34;96.67
77626;BME280;66794;43.764;10.436;2023-03-14T01:04:43;101232.91;;;14.30;100.00
77626;BME280;66794;43.764;10.436;2023-03-14T01:07:08;101225.91;;;13.68;92.73
77626;BME280;66794;43.764;10.436;2023-03-14T01:09:34;101169.28;;;13.49;97.14
77626;BME280;66794;43.764;10.436;2023-03-14T01:11:59;101216.53;;;13.71;91.01
77626;BME280;66794;43.764;10.436;2023-03-14T01:14:24;101210.69;;;13.59;91.69
77626;BME280;66794;43.764;10.436;2023-03-14T01:16:50;101198.94;;;13.44;92.47
77626;BME280;66794;43.764;10.436;2023-03-14T01:19:15;101185.81;;;13.25;93.76
77626;BME280;66794;43.764;10.436;2023-03-14T01:21:40;101187.00;;;13.45;91.19
77626;BME280;66794;43.764;10.436;2023-03-14T01:24:07;101182.97;;;13.41;91.60
77626;BME280;66794;43.764;10.436;2023-03-14T01:26:33;101170.19;;;13.41;90.86
77626;BME280;66794;43.764;10.436;2023-03-14T01:28:59;101160.00;;;13.44;90.18
77626;BME280;66794;43.764;10.436;2023-03-14T01:31:25;101145.56;;;13.43;90.80
77626;BME280;66794;43.764;10.436;2023-03-14T01:33:51;101140.19;;;13.35;90.31
77626;BME280;66794;43.764;10.436;2023-03-14T01:36:16;101134.25;;;13.31;90.46
77626;BME280;66794;43.764;10.436;2023-03-14T01:38:42;101133.13;;;13.26;89.81
77626;BME280;66794;43.764;10.436;2023-03-14T01:41:08;101130.81;;;13.37;88.22
77626;BME280;66794;43.764;10.436;2023-03-14T01:43:34;101132.78;;;13.44;87.95
77626;BME280;66794;43.764;10.436;2023-03-14T01:46:12;101133.63;;;13.44;87.71
77626;BME280;66794;43.764;10.436;2023-03-14T01:48:52;101142.94;;;13.50;87.34
77626;BME280;66794;43.764;10.436;2023-03-14T01:53:44;101136.63;;;13.64;86.08
77626;BME280;66794;43.764;10.436;2023-03-14T01:56:11;101130.91;;;13.59;86.33
77626;BME280;66794;43.764;10.436;2023-03-14T01:58:38;101122.19;;;13.63;86.09
77626;BME280;66794;43.764;10.436;2023-03-14T02:01:05;101123.03;;;13.64;86.22
77626;BME280;66794;43.764;10.436;2023-03-14T02:03:32;101117.13;;;13.75;85.12
77626;BME280;66794;43.764;10.436;2023-03-14T02:05:59;101111.03;;;13.73;86.17
77626;BME280;66794;43.764;10.436;2023-03-14T02:08:27;101121.16;;;13.79;85.36
77626;BME280;66794;43.764;10.436;2023-03-14T02:10:52;101120.88;;;13.74;85.62
77626;BME280;66794;43.764;10.436;2023-03-14T02:13:18;101104.47;;;13.67;85.89
77626;BME280;66794;43.764;10.436;2023-03-14T02:15:45;101094.59;;;13.66;85.74
77626;BME280;66794;43.764;10.436;2023-03-14T02:18:10;101086.81;;;13.63;86.39
77626;BME280;66794;43.764;10.436;2023-03-14T02:23:08;101072.28;;;13.71;84.81
77626;BME280;66794;43.764;10.436;2023-03-14T02:25:39;101074.59;;;13.74;85.00
77626;BME280;66794;43.764;10.436;2023-03-14T02:28:08;101069.84;;;13.76;85.50
77626;BME280;66794;43.764;10.436;2023-03-14T02:30:34;101062.22;;;13.86;84.45
77626;BME280;66794;43.764;10.436;2023-03-14T02:35:29;101062.59;;;13.83;85.04
77626;BME280;66794;43.764;10.436;2023-03-14T02:38:00;101068.22;;;13.82;85.07
77626;BME280;66794;43.764;10.436;2023-03-14T02:40:26;101079.06;;;13.97;83.00
77626;BME280;66794;43.764;10.436;2023-03-14T02:42:51;101077.78;;;13.92;84.18
77626;BME280;66794;43.764;10.436;2023-03-14T02:47:55;101094.88;;;13.86;84.69
77626;BME280;66794;43.764;10.436;2023-03-14T02:50:24;101090.66;;;13.69;87.14
77626;BME280;66794;43.764;10.436;2023-03-14T02:52:50;101079.75;;;13.69;87.15
77626;BME280;66794;43.764;10.436;2023-03-14T02:55:19;101088.50;;;13.64;87.26
77626;BME280;66794;43.764;10.436;2023-03-14T02:57:45;101082.69;;;13.82;84.47
77626;BME280;66794;43.764;10.436;2023-03-14T03:00:10;101076.19;;;13.83;84.47
77626;BME280;66794;43.764;10.436;2023-03-14T03:02:36;101054.91;;;13.72;84.15
77626;BME280;66794;43.764;10.436;2023-03-14T03:05:01;101070.63;;;13.91;83.21
77626;BME280;66794;43.764;10.436;2023-03-14T03:07:26;101092.16;;;13.86;84.36
77626;BME280;66794;43.764;10.436;2023-03-14T03:09:52;101096.47;;;13.81;85.85
77626;BME280;66794;43.764;10.436;2023-03-14T03:12:17;101095.53;;;13.74;85.23
77626;BME280;66794;43.764;10.436;2023-03-14T03:14:42;101095.81;;;13.64;85.92
77626;BME280;66794;43.764;10.436;2023-03-14T03:17:08;101098.81;;;13.69;85.37
77626;BME280;66794;43.764;10.436;2023-03-14T03:19:33;101098.66;;;13.56;87.37
77626;BME280;66794;43.764;10.436;2023-03-14T03:21:59;101094.41;;;13.68;86.90
77626;BME280;66794;43.764;10.436;2023-03-14T03:24:25;101089.34;;;13.80;84.18
77626;BME280;66794;43.764;10.436;2023-03-14T03:26:50;101087.28;;;13.82;84.64
77626;BME280;66794;43.764;10.436;2023-03-14T03:29:16;101076.47;;;13.74;85.36
77626;BME280;66794;43.764;10.436;2023-03-14T03:31:41;101030.00;;;13.75;85.75
77626;BME280;66794;43.764;10.436;2023-03-14T03:34:06;100973.06;;;13.74;85.40
77626;BME280;66794;43.764;10.436;2023-03-14T03:36:32;100958.47;;;13.60;87.00
77626;BME280;66794;43.764;10.436;2023-03-14T03:38:58;100979.19;;;13.61;87.55
77626;BME280;66794;43.764;10.436;2023-03-14T03:41:23;100969.34;;;13.60;86.67
77626;BME280;66794;43.764;10.436;2023-03-14T03:43:48;100937.06;;;13.57;87.52
77626;BME280;66794;43.764;10.436;2023-03-14T03:46:14;100959.56;;;13.65;86.80
77626;BME280;66794;43.764;10.436;2023-03-14T03:48:39;100989.41;;;13.59;87.87
77626;BME280;66794;43.764;10.436;2023-03-14T03:51:05;101003.69;;;13.61;87.68
77626;BME280;66794;43.764;10.436;2023-03-14T03:53:31;101012.75;;;13.68;86.23
77626;BME280;66794;43.764;10.436;2023-03-14T03:55:56;100998.78;;;13.71;85.99
77626;BME280;66794;43.764;10.436;2023-03-14T03:58:21;101001.19;;;13.81;85.39
77626;BME280;66794;43.764;10.436;2023-03-14T04:00:46;101013.13;;;13.80;86.03
77626;BME280;66794;43.764;10.436;2023-03-14T04:03:12;101000.19;;;13.82;86.19
77626;BME280;66794;43.764;10.436;2023-03-14T04:05:37;101015.25;;;13.84;85.97
77626;BME280;66794;43.764;10.436;2023-03-14T04:08:03;101031.78;;;13.83;86.41
77626;BME280;66794;43.764;10.436;2023-03-14T04:10:28;101033.84;;;13.81;87.96
77626;BME280;66794;43.764;10.436;2023-03-14T04:12:54;101018.75;;;13.78;88.03
77626;BME280;66794;43.764;10.436;2023-03-14T04:15:19;101005.78;;;13.80;88.59
77626;BME280;66794;43.764;10.436;2023-03-14T04:17:44;100990.69;;;13.78;88.73
77626;BME280;66794;43.764;10.436;2023-03-14T04:20:10;100986.09;;;13.78;88.85
77626;BME280;66794;43.764;10.436;2023-03-14T04:22:36;100983.75;;;13.75;89.29
77626;BME280;66794;43.764;10.436;2023-03-14T04:25:02;100981.41;;;13.72;89.77
77626;BME280;66794;43.764;10.436;2023-03-14T04:27:28;100986.22;;;13.70;91.10
77626;BME280;66794;43.764;10.436;2023-03-14T04:29:53;100959.00;;;13.70;91.99
77626;BME280;66794;43.764;10.436;2023-03-14T04:32:19;100948.56;;;13.74;91.68
77626;BME280;66794;43.764;10.436;2023-03-14T04:34:45;100954.69;;;13.61;93.03
77626;BME280;66794;43.764;10.436;2023-03-14T04:37:10;100951.22;;;13.67;92.15
77626;BME280;66794;43.764;10.436;2023-03-14T04:39:36;100949.53;;;13.66;91.84
77626;BME280;66794;43.764;10.436;2023-03-14T04:42:01;100952.25;;;13.66;91.38
77626;BME280;66794;43.764;10.436;2023-03-14T04:44:27;100939.94;;;13.70;91.53
77626;BME280;66794;43.764;10.436;2023-03-14T04:46:52;100929.44;;;13.67;92.46
77626;BME280;66794;43.764;10.436;2023-03-14T04:49:17;100930.47;;;13.66;92.29
77626;BME280;66794;43.764;10.436;2023-03-14T04:51:42;100929.72;;;13.72;92.08
77626;BME280;66794;43.764;10.436;2023-03-14T04:54:08;100920.03;;;13.69;92.28
77626;BME280;66794;43.764;10.436;2023-03-14T04:56:34;100912.13;;;13.75;92.41
77626;BME280;66794;43.764;10.436;2023-03-14T04:58:59;100911.63;;;13.86;91.52
77626;BME280;66794;43.764;10.436;2023-03-14T05:01:24;100895.03;;;13.81;92.38
77626;BME280;66794;43.764;10.436;2023-03-14T05:03:50;100898.63;;;13.81;92.56
77626;BME280;66794;43.764;10.436;2023-03-14T05:06:15;100887.47;;;13.76;92.85
77626;BME280;66794;43.764;10.436;2023-03-14T05:08:40;100893.44;;;13.86;91.23
77626;BME280;66794;43.764;10.436;2023-03-14T05:11:06;100883.97;;;13.82;92.18
77626;BME280;66794;43.764;10.436;2023-03-14T05:13:31;100884.59;;;13.84;91.17
77626;BME280;66794;43.764;10.436;2023-03-14T05:16:03;100881.41;;;13.81;91.65
77626;BME280;66794;43.764;10.436;2023-03-14T05:18:29;100896.06;;;13.80;91.70
77626;BME280;66794;43.764;10.436;2023-03-14T05:20:54;100907.41;;;13.83;91.04
77626;BME280;66794;43.764;10.436;2023-03-14T05:23:19;100905.06;;;13.80;91.52
77626;BME280;66794;43.764;10.436;2023-03-14T05:25:45;100892.50;;;13.79;91.55
77626;BME280;66794;43.764;10.436;2023-03-14T05:28:10;100870.72;;;13.79;91.47
77626;BME280;66794;43.764;10.436;2023-03-14T05:30:35;100860.09;;;13.84;90.77
77626;BME280;66794;43.764;10.436;2023-03-14T05:33:01;100845.19;;;13.80;92.41
77626;BME280;66794;43.764;10.436;2023-03-14T05:35:26;100837.63;;;13.76;94.14
77626;BME280;66794;43.764;10.436;2023-03-14T05:37:51;100838.78;;;13.66;96.03
77626;BME280;66794;43.764;10.436;2023-03-14T05:40:17;100848.94;;;13.58;96.96
77626;BME280;66794;43.764;10.436;2023-03-14T05:42:42;100839.69;;;13.52;97.59
77626;BME280;66794;43.764;10.436;2023-03-14T05:45:07;100842.81;;;13.49;97.67
77626;BME280;66794;43.764;10.436;2023-03-14T05:47:33;100857.50;;;13.55;96.96
77626;BME280;66794;43.764;10.436;2023-03-14T05:49:58;100846.75;;;13.47;98.02
77626;BME280;66794;43.764;10.436;2023-03-14T05:52:23;100837.94;;;13.45;99.13
77626;BME280;66794;43.764;10.436;2023-03-14T05:54:49;100858.47;;;13.47;98.52
77626;BME280;66794;43.764;10.436;2023-03-14T05:57:14;100868.97;;;13.50;97.59
77626;BME280;66794;43.764;10.436;2023-03-14T05:59:39;100850.97;;;13.49;97.52
77626;BME280;66794;43.764;10.436;2023-03-14T06:02:05;100833.53;;;13.44;98.78
77626;BME280;66794;43.764;10.436;2023-03-14T06:04:30;100846.47;;;13.41;99.35
77626;BME280;66794;43.764;10.436;2023-03-14T06:06:55;100843.31;;;13.38;99.95
77626;BME280;66794;43.764;10.436;2023-03-14T06:09:21;100838.44;;;13.33;100.00
77626;BME280;66794;43.764;10.436;2023-03-14T06:11:48;100830.03;;;13.28;100.00
77626;BME280;66794;43.764;10.436;2023-03-14T06:14:13;100857.84;;;13.30;100.00
77626;BME280;66794;43.764;10.436;2023-03-14T06:16:38;100853.72;;;13.34;100.00
77626;BME280;66794;43.764;10.436;2023-03-14T06:19:04;100857.50;;;13.33;100.00
77626;BME280;66794;43.764;10.436;2023-03-14T06:21:29;100844.25;;;13.30;100.00
77626;BME280;66794;43.764;10.436;2023-03-14T06:23:55;100835.91;;;13.32;100.00
77626;BME280;66794;43.764;10.436;2023-03-14T06:26:20;100819.13;;;13.28;100.00
77626;BME280;66794;43.764;10.436;2023-03-14T06:28:46;100812.72;;;13.36;99.59
77626;BME280;66794;43.764;10.436;2023-03-14T06:31:12;100808.69;;;13.32;100.00
77626;BME280;66794;43.764;10.436;2023-03-14T06:33:37;100804.13;;;13.32;99.80
77626;BME280;66794;43.764;10.436;2023-03-14T06:36:02;100809.09;;;13.29;100.00
77626;BME280;66794;43.764;10.436;2023-03-14T06:38:28;100794.66;;;13.28;100.00
77626;BME280;66794;43.764;10.436;2023-03-14T06:40:53;100791.47;;;13.25;100.00
77626;BME280;66794;43.764;10.436;2023-03-14T06:43:18;100782.47;;;13.24;100.00
77626;BME280;66794;43.764;10.436;2023-03-14T06:45:44;100786.94;;;13.32;100.00
77626;BME280;66794;43.764;10.436;2023-03-14T06:48:09;100781.34;;;13.33;100.00
77626;BME280;66794;43.764;10.436;2023-03-14T06:50:35;100787.03;;;13.38;99.62
77626;BME280;66794;43.764;10.436;2023-03-14T06:53:00;100788.72;;;13.39;99.94
77626;BME280;66794;43.764;10.436;2023-03-14T06:55:25;100793.31;;;13.39;99.47
77626;BME280;66794;43.764;10.436;2023-03-14T06:57:51;100782.22;;;13.40;99.39
77626;BME280;66794;43.764;10.436;2023-03-14T07:00:16;100769.03;;;13.37;99.23
77626;BME280;66794;43.764;10.436;2023-03-14T07:02:42;100761.81;;;13.30;99.84
77626;BME280;66794;43.764;10.436;2023-03-14T07:05:07;100763.25;;;13.26;100.00
77626;BME280;66794;43.764;10.436;2023-03-14T07:07:35;100754.25;;;13.25;100.00
77626;BME280;66794;43.764;10.436;2023-03-14T07:10:00;100755.91;;;13.26;100.00
77626;BME280;66794;43.764;10.436;2023-03-14T07:12:25;100744.22;;;13.26;100.00
77626;BME280;66794;43.764;10.436;2023-03-14T07:14:51;100733.16;;;13.27;100.00
77626;BME280;66794;43.764;10.436;2023-03-14T07:17:16;100735.66;;;13.29;100.00
77626;BME280;66794;43.764;10.436;2023-03-14T07:19:42;100727.19;;;13.38;100.00
77626;BME280;66794;43.764;10.436;2023-03-14T07:22:07;100729.34;;;13.43;99.79
77626;BME280;66794;43.764;10.436;2023-03-14T07:24:33;100732.69;;;13.45;99.29
77626;BME280;66794;43.764;10.436;2023-03-14T07:26:59;100735.72;;;13.57;98.00
77626;BME280;66794;43.764;10.436;2023-03-14T07:29:24;100740.78;;;13.60;99.39
77626;BME280;66794;43.764;10.436;2023-03-14T07:31:49;100745.97;;;13.55;99.11
77626;BME280;66794;43.764;10.436;2023-03-14T07:34:15;100752.09;;;13.63;98.57
77626;BME280;66794;43.764;10.436;2023-03-14T07:36:40;100748.16;;;13.66;98.04
77626;BME280;66794;43.764;10.436;2023-03-14T07:39:05;100742.03;;;13.64;99.06
77626;BME280;66794;43.764;10.436;2023-03-14T07:41:31;100736.19;;;13.60;99.11
77626;BME280;66794;43.764;10.436;2023-03-14T07:43:56;100724.03;;;13.63;97.67
77626;BME280;66794;43.764;10.436;2023-03-14T07:46:22;100729.06;;;13.59;98.34
77626;BME280;66794;43.764;10.436;2023-03-14T07:48:47;100742.25;;;13.62;98.76
77626;BME280;66794;43.764;10.436;2023-03-14T07:51:13;100752.56;;;13.67;98.04
77626;BME280;66794;43.764;10.436;2023-03-14T07:53:38;100739.53;;;13.62;98.21
77626;BME280;66794;43.764;10.436;2023-03-14T07:56:04;100740.38;;;13.63;97.53
77626;BME280;66794;43.764;10.436;2023-03-14T07:58:30;100754.63;;;13.65;97.59
77626;BME280;66794;43.764;10.436;2023-03-14T08:00:55;100757.19;;;13.73;96.33
77626;BME280;66794;43.764;10.436;2023-03-14T08:03:20;100738.16;;;13.73;96.85
77626;BME280;66794;43.764;10.436;2023-03-14T08:05:49;100744.22;;;13.75;96.62
77626;BME280;66794;43.764;10.436;2023-03-14T08:08:15;100736.78;;;13.84;96.58
77626;BME280;66794;43.764;10.436;2023-03-14T08:10:40;100731.53;;;13.82;96.17
77626;BME280;66794;43.764;10.436;2023-03-14T08:13:05;100718.09;;;13.81;97.66
77626;BME280;66794;43.764;10.436;2023-03-14T08:15:31;100725.03;;;13.83;96.95
77626;BME280;66794;43.764;10.436;2023-03-14T08:17:57;100725.50;;;13.87;96.19
77626;BME280;66794;43.764;10.436;2023-03-14T08:20:23;100728.41;;;13.85;96.62
77626;BME280;66794;43.764;10.436;2023-03-14T08:22:49;100743.25;;;13.83;96.89
77626;BME280;66794;43.764;10.436;2023-03-14T08:25:15;100744.31;;;13.82;97.04
77626;BME280;66794;43.764;10.436;2023-03-14T08:27:41;100745.31;;;13.81;97.14
77626;BME280;66794;43.764;10.436;2023-03-14T08:30:07;100748.50;;;13.84;97.96
77626;BME280;66794;43.764;10.436;2023-03-14T08:32:33;100756.22;;;13.81;98.96
77626;BME280;66794;43.764;10.436;2023-03-14T08:34:58;100708.47;;;13.50;98.29
77626;BME280;66794;43.764;10.436;2023-03-14T08:37:24;100771.94;;;13.85;98.74
77626;BME280;66794;43.764;10.436;2023-03-14T08:39:50;100757.06;;;13.81;98.15
77626;BME280;66794;43.764;10.436;2023-03-14T08:42:15;100745.94;;;13.76;99.64
77626;BME280;66794;43.764;10.436;2023-03-14T08:44:41;100746.56;;;13.78;98.95
77626;BME280;66794;43.764;10.436;2023-03-14T08:47:06;100762.25;;;13.76;99.92
77626;BME280;66794;43.764;10.436;2023-03-14T08:49:32;100772.34;;;13.82;99.48
77626;BME280;66794;43.764;10.436;2023-03-14T08:51:57;100779.09;;;13.86;99.17
77626;BME280;66794;43.764;10.436;2023-03-14T08:54:23;100775.94;;;13.83;99.61
77626;BME280;66794;43.764;10.436;2023-03-14T08:56:49;100774.88;;;13.84;99.66
77626;BME280;66794;43.764;10.436;2023-03-14T08:59:14;100779.28;;;13.85;99.99
77626;BME280;66794;43.764;10.436;2023-03-14T09:01:39;100762.94;;;13.85;100.00
77626;BME280;66794;43.764;10.436;2023-03-14T09:04:05;100762.78;;;13.86;100.00
77626;BME280;66794;43.764;10.436;2023-03-14T09:06:31;100757.16;;;13.94;100.00
77626;BME280;66794;43.764;10.436;2023-03-14T09:08:56;100756.38;;;14.01;100.00
77626;BME280;66794;43.764;10.436;2023-03-14T09:11:22;100757.03;;;14.03;100.00
77626;BME280;66794;43.764;10.436;2023-03-14T09:13:47;100746.59;;;14.13;100.00
77626;BME280;66794;43.764;10.436;2023-03-14T09:16:13;100743.69;;;14.14;100.00
77626;BME280;66794;43.764;10.436;2023-03-14T09:18:39;100743.53;;;14.23;100.00
77626;BME280;66794;43.764;10.436;2023-03-14T09:21:04;100743.09;;;14.19;100.00
77626;BME280;66794;43.764;10.436;2023-03-14T09:23:29;100744.53;;;14.15;100.00
77626;BME280;66794;43.764;10.436;2023-03-14T09:25:55;100745.16;;;14.17;100.00
77626;BME280;66794;43.764;10.436;2023-03-14T09:28:20;100746.44;;;14.21;100.00
77626;BME280;66794;43.764;10.436;2023-03-14T09:30:46;100741.88;;;14.28;100.00
77626;BME280;66794;43.764;10.436;2023-03-14T09:33:11;100737.88;;;14.24;100.00
77626;BME280;66794;43.764;10.436;2023-03-14T09:35:36;100744.53;;;14.15;100.00
77626;BME280;66794;43.764;10.436;2023-03-14T09:38:02;100746.41;;;14.14;100.00
77626;BME280;66794;43.764;10.436;2023-03-14T09:40:30;100744.53;;;14.15;100.00
77626;BME280;66794;43.764;10.436;2023-03-14T09:42:56;100734.47;;;14.15;100.00
77626;BME280;66794;43.764;10.436;2023-03-14T09:45:34;100739.97;;;14.22;100.00
77626;BME280;66794;43.764;10.436;2023-03-14T09:48:00;100723.63;;;14.22;100.00
77626;BME280;66794;43.764;10.436;2023-03-14T09:50:30;100737.88;;;14.24;100.00
77626;BME280;66794;43.764;10.436;2023-03-14T09:53:02;100748.13;;;14.22;100.00
77626;BME280;66794;43.764;10.436;2023-03-14T09:55:29;100783.88;;;13.84;100.00
77626;BME280;66794;43.764;10.436;2023-03-14T09:58:00;100772.66;;;13.45;100.00
77626;BME280;66794;43.764;10.436;2023-03-14T10:00:29;100768.31;;;13.50;100.00
77626;BME280;66794;43.764;10.436;2023-03-14T10:03:00;100770.44;;;13.55;100.00
77626;BME280;66794;43.764;10.436;2023-03-14T10:05:28;100773.47;;;13.66;100.00
77626;BME280;66794;43.764;10.436;2023-03-14T10:07:58;100789.53;;;13.83;100.00
77626;BME280;66794;43.764;10.436;2023-03-14T10:10:25;100779.19;;;14.00;100.00
77626;BME280;66794;43.764;10.436;2023-03-14T10:12:59;100781.13;;;14.06;100.00
77626;BME280;66794;43.764;10.436;2023-03-14T10:15:30;100780.84;;;14.29;100.00
77626;BME280;66794;43.764;10.436;2023-03-14T10:17:58;100787.75;;;14.25;100.00
77626;BME280;66794;43.764;10.436;2023-03-14T10:20:27;100788.19;;;14.28;100.00
77626;BME280;66794;43.764;10.436;2023-03-14T10:23:18;100788.63;;;14.32;100.00
77626;BME280;66794;43.764;10.436;2023-03-14T10:26:06;100792.69;;;14.42;96.36
77626;BME280;66794;43.764;10.436;2023-03-14T10:28:37;100778.56;;;15.15;95.70
77626;BME280;66794;43.764;10.436;2023-03-14T10:31:04;100786.19;;;15.52;91.12
77626;BME280;66794;43.764;10.436;2023-03-14T10:33:32;100780.72;;;15.46;91.95
77626;BME280;66794;43.764;10.436;2023-03-14T10:38:42;100765.59;;;15.37;85.56
77626;BME280;66794;43.764;10.436;2023-03-14T10:41:25;100749.06;;;15.65;87.24
77626;BME280;66794;43.764;10.436;2023-03-14T10:43:59;100755.13;;;15.60;86.69
77626;BME280;66794;43.764;10.436;2023-03-14T10:46:26;100746.34;;;15.65;88.93
77626;BME280;66794;43.764;10.436;2023-03-14T10:48:56;100743.78;;;16.03;86.69
77626;BME280;66794;43.764;10.436;2023-03-14T10:53:54;100732.66;;;15.91;84.78
77626;BME280;66794;43.764;10.436;2023-03-14T10:56:22;100724.03;;;15.41;83.54
77626;BME280;66794;43.764;10.436;2023-03-14T10:58:50;100737.91;;;15.33;84.97
77626;BME280;66794;43.764;10.436;2023-03-14T11:01:29;100739.09;;;15.11;82.54
77626;BME280;66794;43.764;10.436;2023-03-14T11:06:54;100735.31;;;15.05;81.94
77626;BME280;66794;43.764;10.436;2023-03-14T11:12:08;100729.47;;;15.21;80.82
77626;BME280;66794;43.764;10.436;2023-03-14T11:14:41;100732.06;;;15.69;79.17
77626;BME280;66794;43.764;10.436;2023-03-14T11:17:18;100727.00;;;16.06;81.91
77626;BME280;66794;43.764;10.436;2023-03-14T11:19:50;100715.84;;;15.41;78.64
77626;BME280;66794;43.764;10.436;2023-03-14T11:27:23;100706.41;;;16.75;78.42
77626;BME280;66794;43.764;10.436;2023-03-14T11:29:55;100695.16;;;16.38;79.37
77626;BME280;66794;43.764;10.436;2023-03-14T11:32:49;100705.81;;;15.88;77.71
77626;BME280;66794;43.764;10.436;2023-03-14T11:37:49;100698.22;;;15.90;75.66
77626;BME280;66794;43.764;10.436;2023-03-14T11:40:19;100691.47;;;16.06;74.75
77626;BME280;66794;43.764;10.436;2023-03-14T11:42:48;100698.41;;;16.15;75.40
77626;BME280;66794;43.764;10.436;2023-03-14T11:45:22;100691.09;;;15.89;73.55
77626;BME280;66794;43.764;10.436;2023-03-14T11:47:59;100696.97;;;15.80;75.25
77626;BME280;66794;43.764;10.436;2023-03-14T11:50:27;100684.78;;;15.62;76.05
77626;BME280;66794;43.764;10.436;2023-03-14T11:52:58;100681.00;;;15.43;76.32
77626;BME280;66794;43.764;10.436;2023-03-14T11:55:35;100677.69;;;15.68;78.90
77626;BME280;66794;43.764;10.436;2023-03-14T11:58:05;100677.03;;;15.72;73.85
77626;BME280;66794;43.764;10.436;2023-03-14T12:00:36;100666.44;;;16.09;76.53
77626;BME280;66794;43.764;10.436;2023-03-14T12:03:17;100664.00;;;15.81;74.44
77626;BME280;66794;43.764;10.436;2023-03-14T12:11:03;100665.03;;;15.53;75.16
77626;BME280;66794;43.764;10.436;2023-03-14T12:13:35;100643.66;;;15.77;77.80
77626;BME280;66794;43.764;10.436;2023-03-14T12:16:06;100646.56;;;15.62;77.25
77626;BME280;66794;43.764;10.436;2023-03-14T12:18:34;100646.38;;;15.64;80.21
77626;BME280;66794;43.764;10.436;2023-03-14T12:21:04;100654.16;;;15.40;79.25
77626;BME280;66794;43.764;10.436;2023-03-14T12:23:42;100634.41;;;15.25;78.51
77626;BME280;66794;43.764;10.436;2023-03-14T12:28:39;100610.88;;;15.77;80.25
77626;BME280;66794;43.764;10.436;2023-03-14T12:34:00;100610.28;;;15.35;82.05
77626;BME280;66794;43.764;10.436;2023-03-14T12:41:53;100600.22;;;15.22;83.83
77626;BME280;66794;43.764;10.436;2023-03-14T12:46:58;100596.44;;;15.23;82.25
77626;BME280;66794;43.764;10.436;2023-03-14T12:49:31;100587.63;;;15.21;82.06
77626;BME280;66794;43.764;10.436;2023-03-14T12:52:01;100583.44;;;15.12;81.38
77626;BME280;66794;43.764;10.436;2023-03-14T13:00:00;100571.00;;;15.56;82.56
77626;BME280;66794;43.764;10.436;2023-03-14T13:02:41;100559.50;;;15.21;84.60
77626;BME280;66794;43.764;10.436;2023-03-14T13:05:13;100557.41;;;15.30;85.89
77626;BME280;66794;43.764;10.436;2023-03-14T13:10:24;100559.47;;;15.27;83.83
77626;BME280;66794;43.764;10.436;2023-03-14T13:13:01;100557.38;;;15.36;84.19
77626;BME280;66794;43.764;10.436;2023-03-14T13:15:30;100542.50;;;14.99;84.41
77626;BME280;66794;43.764;10.436;2023-03-14T13:18:33;100554.47;;;14.91;85.28
77626;BME280;66794;43.764;10.436;2023-03-14T13:23:26;100549.00;;;14.78;85.92
77626;BME280;66794;43.764;10.436;2023-03-14T13:25:53;100547.75;;;14.87;86.70
77626;BME280;66794;43.764;10.436;2023-03-14T13:28:20;100544.84;;;15.02;86.94
77626;BME280;66794;43.764;10.436;2023-03-14T13:30:48;100540.84;;;14.85;87.33
77626;BME280;66794;43.764;10.436;2023-03-14T13:33:17;100541.91;;;14.97;87.86
77626;BME280;66794;43.764;10.436;2023-03-14T13:35:48;100531.41;;;14.87;87.36